Terminal Aerodrome Forecast
Issued by NWS

Home | Current Version | Previous Version | Graphics & Text | Print | Product List | Glossary On
Versions: 1 2 3 4 5 6 7 8 9 10 11 12 13 14 15 16 17 18 19 20 21 22 23 24 25 26 27
354
FTUS43 KABR 191121
TAFATY
TAF
KATY 191121Z 1912/2012 15010KT P6SM SCT250
     FM191700 17015KT P6SM SCT200
     FM200800 17014G22KT 4SM -SHRA OVC015
     FM201000 18015G22KT P6SM OVC015=

USA.gov is the U.S. government's official web portal to all federal, state and local government web resources and services.